sensor_id;sensor_type;location;lat;lon;timestamp;P1;durP1;ratioP1;P2;durP2;ratioP2
54589;SDS011;40485;53.172;5.416;2022-10-14T06:02:33;97.90;;;11.35;;
54589;SDS011;40485;53.172;5.416;2022-10-14T06:04:58;121.25;;;13.10;;
54589;SDS011;40485;53.172;5.416;2022-10-14T06:07:24;131.77;;;14.63;;
54589;SDS011;40485;53.172;5.416;2022-10-14T06:09:49;97.70;;;14.80;;
54589;SDS011;40485;53.172;5.416;2022-10-14T06:12:15;168.98;;;17.17;;
54589;SDS011;40485;53.172;5.416;2022-10-14T06:14:41;100.97;;;16.15;;
54589;SDS011;40485;53.172;5.416;2022-10-14T06:17:06;111.15;;;16.27;;
54589;SDS011;40485;53.172;5.416;2022-10-14T06:19:32;132.90;;;18.00;;
54589;SDS011;40485;53.172;5.416;2022-10-14T06:21:58;71.32;;;15.85;;
54589;SDS011;40485;53.172;5.416;2022-10-14T06:24:23;98.55;;;16.63;;
54589;SDS011;40485;53.172;5.416;2022-10-14T06:26:49;87.88;;;15.00;;
54589;SDS011;40485;53.172;5.416;2022-10-14T06:29:15;76.03;;;14.13;;
54589;SDS011;40485;53.172;5.416;2022-10-14T06:31:41;48.25;;;13.73;;
54589;SDS011;40485;53.172;5.416;2022-10-14T06:34:07;62.47;;;14.25;;
54589;SDS011;40485;53.172;5.416;2022-10-14T06:36:33;78.45;;;14.00;;
54589;SDS011;40485;53.172;5.416;2022-10-14T06:38:59;87.65;;;15.40;;
54589;SDS011;40485;53.172;5.416;2022-10-14T06:41:24;113.00;;;16.35;;
54589;SDS011;40485;53.172;5.416;2022-10-14T06:43:51;73.82;;;15.52;;
54589;SDS011;40485;53.172;5.416;2022-10-14T06:46:16;84.28;;;16.10;;
54589;SDS011;40485;53.172;5.416;2022-10-14T06:48:42;88.38;;;15.73;;
54589;SDS011;40485;53.172;5.416;2022-10-14T06:51:08;118.95;;;16.95;;
54589;SDS011;40485;53.172;5.416;2022-10-14T06:53:33;102.60;;;17.05;;
54589;SDS011;40485;53.172;5.416;2022-10-14T06:56:00;61.97;;;16.25;;
54589;SDS011;40485;53.172;5.416;2022-10-14T06:58:28;62.38;;;15.57;;
54589;SDS011;40485;53.172;5.416;2022-10-14T07:00:54;74.35;;;17.90;;
54589;SDS011;40485;53.172;5.416;2022-10-14T07:03:25;90.60;;;18.13;;
54589;SDS011;40485;53.172;5.416;2022-10-14T07:05:51;69.97;;;12.82;;
54589;SDS011;40485;53.172;5.416;2022-10-14T07:08:16;45.92;;;12.73;;
54589;SDS011;40485;53.172;5.416;2022-10-14T07:10:42;40.17;;;13.15;;
54589;SDS011;40485;53.172;5.416;2022-10-14T07:13:08;53.13;;;14.30;;
54589;SDS011;40485;53.172;5.416;2022-10-14T07:15:33;45.47;;;15.68;;
54589;SDS011;40485;53.172;5.416;2022-10-14T07:17:59;16.75;;;10.27;;
54589;SDS011;40485;53.172;5.416;2022-10-14T07:20:24;24.15;;;11.70;;
54589;SDS011;40485;53.172;5.416;2022-10-14T07:22:53;23.42;;;12.43;;
54589;SDS011;40485;53.172;5.416;2022-10-14T07:25:20;23.92;;;13.63;;
54589;SDS011;40485;53.172;5.416;2022-10-14T07:27:45;23.65;;;13.73;;
54589;SDS011;40485;53.172;5.416;2022-10-14T07:30:11;30.15;;;16.30;;
54589;SDS011;40485;53.172;5.416;2022-10-14T07:32:37;23.65;;;15.07;;
54589;SDS011;40485;53.172;5.416;2022-10-14T07:35:03;21.88;;;14.45;;
54589;SDS011;40485;53.172;5.416;2022-10-14T07:37:29;26.48;;;15.50;;
54589;SDS011;40485;53.172;5.416;2022-10-14T07:39:55;26.80;;;15.52;;
54589;SDS011;40485;53.172;5.416;2022-10-14T07:42:20;22.08;;;14.15;;
54589;SDS011;40485;53.172;5.416;2022-10-14T07:44:46;22.42;;;13.25;;
54589;SDS011;40485;53.172;5.416;2022-10-14T07:47:12;23.85;;;14.95;;
54589;SDS011;40485;53.172;5.416;2022-10-14T07:49:37;26.83;;;15.40;;
54589;SDS011;40485;53.172;5.416;2022-10-14T07:52:03;23.55;;;14.73;;
54589;SDS011;40485;53.172;5.416;2022-10-14T07:54:29;20.80;;;14.30;;
54589;SDS011;40485;53.172;5.416;2022-10-14T07:56:56;25.25;;;15.63;;
54589;SDS011;40485;53.172;5.416;2022-10-14T07:59:23;23.13;;;13.70;;
54589;SDS011;40485;53.172;5.416;2022-10-14T08:01:50;24.58;;;14.00;;
54589;SDS011;40485;53.172;5.416;2022-10-14T08:04:16;22.27;;;13.68;;
54589;SDS011;40485;53.172;5.416;2022-10-14T08:06:42;17.80;;;11.93;;
54589;SDS011;40485;53.172;5.416;2022-10-14T08:09:09;20.50;;;12.45;;
54589;SDS011;40485;53.172;5.416;2022-10-14T08:11:35;19.75;;;12.50;;
54589;SDS011;40485;53.172;5.416;2022-10-14T08:14:02;21.08;;;12.70;;
54589;SDS011;40485;53.172;5.416;2022-10-14T08:16:29;18.52;;;11.93;;
54589;SDS011;40485;53.172;5.416;2022-10-14T08:18:59;23.83;;;13.00;;
54589;SDS011;40485;53.172;5.416;2022-10-14T08:21:26;13.82;;;9.55;;
54589;SDS011;40485;53.172;5.416;2022-10-14T08:23:52;23.20;;;14.05;;
54589;SDS011;40485;53.172;5.416;2022-10-14T08:28:46;20.55;;;12.52;;
54589;SDS011;40485;53.172;5.416;2022-10-14T08:31:12;21.60;;;13.52;;
54589;SDS011;40485;53.172;5.416;2022-10-14T08:33:38;21.55;;;13.57;;
54589;SDS011;40485;53.172;5.416;2022-10-14T08:36:04;20.27;;;13.02;;
54589;SDS011;40485;53.172;5.416;2022-10-14T08:38:29;20.02;;;12.68;;
54589;SDS011;40485;53.172;5.416;2022-10-14T08:40:58;23.10;;;14.82;;
54589;SDS011;40485;53.172;5.416;2022-10-14T08:43:31;25.55;;;15.27;;
54589;SDS011;40485;53.172;5.416;2022-10-14T08:46:03;24.20;;;14.20;;
54589;SDS011;40485;53.172;5.416;2022-10-14T08:48:50;25.67;;;15.73;;
54589;SDS011;40485;53.172;5.416;2022-10-14T08:51:43;29.20;;;16.48;;
54589;SDS011;40485;53.172;5.416;2022-10-14T08:54:13;23.52;;;14.75;;
54589;SDS011;40485;53.172;5.416;2022-10-14T08:56:48;29.25;;;16.02;;
54589;SDS011;40485;53.172;5.416;2022-10-14T08:59:15;33.10;;;18.58;;
54589;SDS011;40485;53.172;5.416;2022-10-14T09:01:58;25.20;;;16.10;;
54589;SDS011;40485;53.172;5.416;2022-10-14T09:04:27;26.75;;;17.38;;
54589;SDS011;40485;53.172;5.416;2022-10-14T09:06:55;29.35;;;17.08;;
54589;SDS011;40485;53.172;5.416;2022-10-14T09:09:22;28.23;;;17.40;;
54589;SDS011;40485;53.172;5.416;2022-10-14T09:11:59;27.73;;;16.83;;
54589;SDS011;40485;53.172;5.416;2022-10-14T09:14:31;24.90;;;15.02;;
54589;SDS011;40485;53.172;5.416;2022-10-14T09:17:04;20.10;;;12.95;;
54589;SDS011;40485;53.172;5.416;2022-10-14T09:22:16;28.70;;;17.60;;
54589;SDS011;40485;53.172;5.416;2022-10-14T09:24:42;25.55;;;16.52;;
54589;SDS011;40485;53.172;5.416;2022-10-14T09:27:16;20.67;;;13.35;;
54589;SDS011;40485;53.172;5.416;2022-10-14T09:32:28;25.98;;;16.45;;
54589;SDS011;40485;53.172;5.416;2022-10-14T09:34:57;23.60;;;14.73;;
54589;SDS011;40485;53.172;5.416;2022-10-14T09:39:49;24.27;;;14.98;;
54589;SDS011;40485;53.172;5.416;2022-10-14T09:42:20;23.83;;;15.20;;
54589;SDS011;40485;53.172;5.416;2022-10-14T09:47:29;23.27;;;14.35;;
54589;SDS011;40485;53.172;5.416;2022-10-14T09:49:54;20.73;;;12.45;;
54589;SDS011;40485;53.172;5.416;2022-10-14T09:52:24;22.15;;;13.73;;
54589;SDS011;40485;53.172;5.416;2022-10-14T09:54:53;20.92;;;13.45;;
54589;SDS011;40485;53.172;5.416;2022-10-14T09:57:22;20.77;;;13.75;;
54589;SDS011;40485;53.172;5.416;2022-10-14T09:59:54;18.20;;;11.80;;
54589;SDS011;40485;53.172;5.416;2022-10-14T10:02:35;20.33;;;12.23;;
54589;SDS011;40485;53.172;5.416;2022-10-14T10:05:21;18.00;;;11.80;;
54589;SDS011;40485;53.172;5.416;2022-10-14T10:08:25;14.20;;;9.25;;
54589;SDS011;40485;53.172;5.416;2022-10-14T10:10:57;22.02;;;10.63;;
54589;SDS011;40485;53.172;5.416;2022-10-14T10:13:32;13.52;;;8.88;;
54589;SDS011;40485;53.172;5.416;2022-10-14T10:16:00;11.75;;;7.53;;
54589;SDS011;40485;53.172;5.416;2022-10-14T10:18:28;14.65;;;9.43;;
54589;SDS011;40485;53.172;5.416;2022-10-14T10:21:13;14.10;;;7.50;;
54589;SDS011;40485;53.172;5.416;2022-10-14T10:23:51;14.90;;;8.00;;
54589;SDS011;40485;53.172;5.416;2022-10-14T10:26:21;13.77;;;8.43;;
54589;SDS011;40485;53.172;5.416;2022-10-14T10:28:52;11.70;;;7.35;;
54589;SDS011;40485;53.172;5.416;2022-10-14T10:31:32;12.73;;;7.97;;
54589;SDS011;40485;53.172;5.416;2022-10-14T10:37:38;10.23;;;7.05;;
54589;SDS011;40485;53.172;5.416;2022-10-14T10:40:11;9.13;;;6.85;;
54589;SDS011;40485;53.172;5.416;2022-10-14T10:42:53;8.52;;;5.78;;
54589;SDS011;40485;53.172;5.416;2022-10-14T10:56:52;9.75;;;6.50;;
54589;SDS011;40485;53.172;5.416;2022-10-14T10:59:38;10.10;;;5.97;;
54589;SDS011;40485;53.172;5.416;2022-10-14T11:10:42;10.20;;;5.63;;
54589;SDS011;40485;53.172;5.416;2022-10-14T11:16:31;8.40;;;5.57;;
54589;SDS011;40485;53.172;5.416;2022-10-14T11:19:32;10.48;;;5.75;;
54589;SDS011;40485;53.172;5.416;2022-10-14T11:25:12;6.72;;;4.57;;
54589;SDS011;40485;53.172;5.416;2022-10-14T11:33:16;8.60;;;5.35;;
54589;SDS011;40485;53.172;5.416;2022-10-14T11:39:07;10.05;;;5.25;;
54589;SDS011;40485;53.172;5.416;2022-10-14T11:44:41;8.27;;;5.57;;
54589;SDS011;40485;53.172;5.416;2022-10-14T11:47:26;8.40;;;5.43;;
54589;SDS011;40485;53.172;5.416;2022-10-14T11:50:02;10.73;;;6.20;;
54589;SDS011;40485;53.172;5.416;2022-10-14T11:52:49;10.32;;;5.88;;
54589;SDS011;40485;53.172;5.416;2022-10-14T11:55:22;9.52;;;5.72;;
54589;SDS011;40485;53.172;5.416;2022-10-14T11:57:54;8.95;;;5.85;;
54589;SDS011;40485;53.172;5.416;2022-10-14T12:00:24;11.07;;;6.43;;
54589;SDS011;40485;53.172;5.416;2022-10-14T12:02:57;10.50;;;5.65;;
54589;SDS011;40485;53.172;5.416;2022-10-14T12:05:51;10.73;;;6.13;;
54589;SDS011;40485;53.172;5.416;2022-10-14T12:08:30;9.50;;;5.57;;
54589;SDS011;40485;53.172;5.416;2022-10-14T12:11:17;11.43;;;6.72;;
54589;SDS011;40485;53.172;5.416;2022-10-14T12:14:03;11.20;;;6.50;;
54589;SDS011;40485;53.172;5.416;2022-10-14T12:16:29;8.90;;;6.25;;
54589;SDS011;40485;53.172;5.416;2022-10-14T12:18:56;10.45;;;6.95;;
54589;SDS011;40485;53.172;5.416;2022-10-14T12:21:23;9.85;;;6.60;;
54589;SDS011;40485;53.172;5.416;2022-10-14T12:24:15;11.55;;;6.80;;
54589;SDS011;40485;53.172;5.416;2022-10-14T12:26:47;8.98;;;6.28;;
54589;SDS011;40485;53.172;5.416;2022-10-14T12:29:18;10.82;;;6.45;;
54589;SDS011;40485;53.172;5.416;2022-10-14T12:32:07;11.93;;;6.90;;
54589;SDS011;40485;53.172;5.416;2022-10-14T12:34:57;9.18;;;7.00;;
54589;SDS011;40485;53.172;5.416;2022-10-14T12:45:15;10.85;;;6.32;;
54589;SDS011;40485;53.172;5.416;2022-10-14T12:47:45;12.68;;;7.13;;
54589;SDS011;40485;53.172;5.416;2022-10-14T12:52:40;9.75;;;5.70;;
54589;SDS011;40485;53.172;5.416;2022-10-14T12:55:14;7.13;;;5.15;;
54589;SDS011;40485;53.172;5.416;2022-10-14T12:57:57;7.65;;;5.35;;
54589;SDS011;40485;53.172;5.416;2022-10-14T13:00:30;6.82;;;4.88;;
54589;SDS011;40485;53.172;5.416;2022-10-14T13:03:00;7.35;;;4.82;;
54589;SDS011;40485;53.172;5.416;2022-10-14T13:05:35;6.85;;;4.70;;
54589;SDS011;40485;53.172;5.416;2022-10-14T13:21:27;4.68;;;3.47;;
54589;SDS011;40485;53.172;5.416;2022-10-14T13:24:10;4.28;;;3.35;;
54589;SDS011;40485;53.172;5.416;2022-10-14T13:32:05;4.30;;;3.17;;
54589;SDS011;40485;53.172;5.416;2022-10-14T13:34:58;4.25;;;3.03;;
54589;SDS011;40485;53.172;5.416;2022-10-14T13:37:51;4.03;;;3.05;;
54589;SDS011;40485;53.172;5.416;2022-10-14T13:43:22;3.67;;;2.75;;
54589;SDS011;40485;53.172;5.416;2022-10-14T13:46:07;4.10;;;3.00;;
54589;SDS011;40485;53.172;5.416;2022-10-14T13:48:40;4.93;;;3.75;;
54589;SDS011;40485;53.172;5.416;2022-10-14T13:56:21;4.65;;;3.40;;
54589;SDS011;40485;53.172;5.416;2022-10-14T13:58:48;4.57;;;4.03;;
54589;SDS011;40485;53.172;5.416;2022-10-14T14:01:14;5.35;;;3.83;;
54589;SDS011;40485;53.172;5.416;2022-10-14T14:03:43;4.90;;;3.95;;
54589;SDS011;40485;53.172;5.416;2022-10-14T14:06:14;6.38;;;4.70;;
54589;SDS011;40485;53.172;5.416;2022-10-14T14:08:52;9.43;;;6.18;;
54589;SDS011;40485;53.172;5.416;2022-10-14T14:11:24;7.15;;;5.57;;
54589;SDS011;40485;53.172;5.416;2022-10-14T14:14:02;7.75;;;6.00;;
54589;SDS011;40485;53.172;5.416;2022-10-14T14:16:35;13.10;;;6.55;;
54589;SDS011;40485;53.172;5.416;2022-10-14T14:19:04;9.63;;;6.72;;
54589;SDS011;40485;53.172;5.416;2022-10-14T14:21:30;11.27;;;8.68;;
54589;SDS011;40485;53.172;5.416;2022-10-14T14:24:01;10.07;;;7.95;;
54589;SDS011;40485;53.172;5.416;2022-10-14T14:29:02;11.30;;;8.60;;
54589;SDS011;40485;53.172;5.416;2022-10-14T14:31:38;12.93;;;8.95;;
54589;SDS011;40485;53.172;5.416;2022-10-14T14:34:05;12.35;;;9.02;;
54589;SDS011;40485;53.172;5.416;2022-10-14T14:36:30;13.07;;;8.85;;
54589;SDS011;40485;53.172;5.416;2022-10-14T14:38:57;8.90;;;6.30;;
54589;SDS011;40485;53.172;5.416;2022-10-14T14:41:26;10.15;;;7.63;;
54589;SDS011;40485;53.172;5.416;2022-10-14T14:43:57;11.77;;;8.35;;
54589;SDS011;40485;53.172;5.416;2022-10-14T14:48:58;10.75;;;8.52;;
54589;SDS011;40485;53.172;5.416;2022-10-14T14:51:26;11.40;;;9.02;;
54589;SDS011;40485;53.172;5.416;2022-10-14T14:53:56;9.98;;;7.15;;
54589;SDS011;40485;53.172;5.416;2022-10-14T14:56:26;12.52;;;9.65;;
54589;SDS011;40485;53.172;5.416;2022-10-14T14:58:56;11.07;;;8.93;;
54589;SDS011;40485;53.172;5.416;2022-10-14T15:01:46;11.18;;;8.13;;
54589;SDS011;40485;53.172;5.416;2022-10-14T15:04:14;13.65;;;9.65;;
54589;SDS011;40485;53.172;5.416;2022-10-14T15:06:55;13.25;;;10.55;;
54589;SDS011;40485;53.172;5.416;2022-10-14T15:09:42;11.93;;;9.52;;
54589;SDS011;40485;53.172;5.416;2022-10-14T15:12:14;13.45;;;11.00;;
54589;SDS011;40485;53.172;5.416;2022-10-14T15:14:52;12.18;;;9.75;;
54589;SDS011;40485;53.172;5.416;2022-10-14T15:20:43;13.32;;;11.40;;
54589;SDS011;40485;53.172;5.416;2022-10-14T15:22:50;13.60;;;11.23;;
54589;SDS011;40485;53.172;5.416;2022-10-14T15:27:49;14.38;;;10.68;;
54589;SDS011;40485;53.172;5.416;2022-10-14T15:30:47;14.63;;;10.30;;
54589;SDS011;40485;53.172;5.416;2022-10-14T15:33:17;17.67;;;12.10;;
54589;SDS011;40485;53.172;5.416;2022-10-14T15:35:53;14.07;;;11.70;;
54589;SDS011;40485;53.172;5.416;2022-10-14T15:38:21;16.23;;;11.40;;
54589;SDS011;40485;53.172;5.416;2022-10-14T15:40:48;13.80;;;9.88;;
54589;SDS011;40485;53.172;5.416;2022-10-14T15:43:15;13.90;;;10.25;;
54589;SDS011;40485;53.172;5.416;2022-10-14T15:45:52;15.18;;;11.23;;
54589;SDS011;40485;53.172;5.416;2022-10-14T15:48:38;12.57;;;10.25;;
54589;SDS011;40485;53.172;5.416;2022-10-14T15:51:16;11.43;;;8.35;;
54589;SDS011;40485;53.172;5.416;2022-10-14T15:53:47;11.60;;;8.80;;
54589;SDS011;40485;53.172;5.416;2022-10-14T15:56:13;9.00;;;6.97;;
54589;SDS011;40485;53.172;5.416;2022-10-14T15:58:39;9.07;;;5.85;;
54589;SDS011;40485;53.172;5.416;2022-10-14T16:01:05;6.00;;;3.88;;
54589;SDS011;40485;53.172;5.416;2022-10-14T16:03:31;3.55;;;2.10;;
54589;SDS011;40485;53.172;5.416;2022-10-14T16:05:57;6.13;;;2.38;;
54589;SDS011;40485;53.172;5.416;2022-10-14T16:08:24;8.65;;;2.90;;
54589;SDS011;40485;53.172;5.416;2022-10-14T16:10:49;4.70;;;2.30;;
54589;SDS011;40485;53.172;5.416;2022-10-14T16:13:18;3.50;;;1.90;;
54589;SDS011;40485;53.172;5.416;2022-10-14T16:15:45;3.38;;;1.95;;
54589;SDS011;40485;53.172;5.416;2022-10-14T16:18:12;4.68;;;2.30;;
54589;SDS011;40485;53.172;5.416;2022-10-14T16:20:38;5.85;;;2.30;;
54589;SDS011;40485;53.172;5.416;2022-10-14T16:23:04;6.00;;;2.00;;
54589;SDS011;40485;53.172;5.416;2022-10-14T16:25:35;3.95;;;2.22;;
54589;SDS011;40485;53.172;5.416;2022-10-14T16:28:08;6.47;;;1.90;;
54589;SDS011;40485;53.172;5.416;2022-10-14T16:30:34;8.80;;;2.78;;
54589;SDS011;40485;53.172;5.416;2022-10-14T16:33:01;7.68;;;2.50;;
54589;SDS011;40485;53.172;5.416;2022-10-14T16:35:27;10.98;;;3.33;;
54589;SDS011;40485;53.172;5.416;2022-10-14T16:37:53;6.78;;;2.47;;
54589;SDS011;40485;53.172;5.416;2022-10-14T16:40:19;6.13;;;2.97;;
54589;SDS011;40485;53.172;5.416;2022-10-14T16:42:45;5.53;;;2.80;;
54589;SDS011;40485;53.172;5.416;2022-10-14T16:45:11;6.40;;;2.90;;
54589;SDS011;40485;53.172;5.416;2022-10-14T16:47:37;6.05;;;2.63;;
54589;SDS011;40485;53.172;5.416;2022-10-14T16:50:05;5.38;;;2.95;;
54589;SDS011;40485;53.172;5.416;2022-10-14T16:52:31;6.05;;;3.10;;
54589;SDS011;40485;53.172;5.416;2022-10-14T16:55:17;8.80;;;3.28;;
54589;SDS011;40485;53.172;5.416;2022-10-14T16:57:44;6.85;;;3.80;;
54589;SDS011;40485;53.172;5.416;2022-10-14T17:00:09;5.57;;;3.22;;
54589;SDS011;40485;53.172;5.416;2022-10-14T17:02:36;5.25;;;3.45;;
54589;SDS011;40485;53.172;5.416;2022-10-14T17:05:01;5.95;;;3.47;;
54589;SDS011;40485;53.172;5.416;2022-10-14T17:07:27;7.65;;;4.25;;
54589;SDS011;40485;53.172;5.416;2022-10-14T17:09:53;7.53;;;3.95;;
54589;SDS011;40485;53.172;5.416;2022-10-14T17:12:18;5.85;;;3.38;;
54589;SDS011;40485;53.172;5.416;2022-10-14T17:14:44;4.97;;;3.85;;
54589;SDS011;40485;53.172;5.416;2022-10-14T17:17:10;7.82;;;3.72;;
54589;SDS011;40485;53.172;5.416;2022-10-14T17:19:37;5.35;;;3.83;;
54589;SDS011;40485;53.172;5.416;2022-10-14T17:22:02;5.90;;;4.40;;
54589;SDS011;40485;53.172;5.416;2022-10-14T17:24:28;12.38;;;4.80;;
54589;SDS011;40485;53.172;5.416;2022-10-14T17:26:54;7.88;;;5.10;;
54589;SDS011;40485;53.172;5.416;2022-10-14T17:29:20;9.20;;;4.60;;
54589;SDS011;40485;53.172;5.416;2022-10-14T17:31:46;7.78;;;5.00;;
54589;SDS011;40485;53.172;5.416;2022-10-14T17:34:12;7.78;;;4.70;;
54589;SDS011;40485;53.172;5.416;2022-10-14T17:36:38;6.40;;;4.70;;
54589;SDS011;40485;53.172;5.416;2022-10-14T17:39:05;7.07;;;4.78;;
54589;SDS011;40485;53.172;5.416;2022-10-14T17:41:36;8.35;;;5.10;;
54589;SDS011;40485;53.172;5.416;2022-10-14T17:44:02;8.07;;;4.93;;
54589;SDS011;40485;53.172;5.416;2022-10-14T17:46:28;8.85;;;5.35;;
54589;SDS011;40485;53.172;5.416;2022-10-14T17:48:56;11.18;;;5.75;;
54589;SDS011;40485;53.172;5.416;2022-10-14T17:51:23;9.02;;;5.57;;
54589;SDS011;40485;53.172;5.416;2022-10-14T17:53:54;9.30;;;6.50;;
54589;SDS011;40485;53.172;5.416;2022-10-14T17:56:22;8.60;;;5.68;;
54589;SDS011;40485;53.172;5.416;2022-10-14T17:58:55;7.75;;;5.75;;
54589;SDS011;40485;53.172;5.416;2022-10-14T18:01:22;11.85;;;8.23;;
54589;SDS011;40485;53.172;5.416;2022-10-14T18:03:49;10.05;;;6.35;;
54589;SDS011;40485;53.172;5.416;2022-10-14T18:06:23;11.63;;;6.90;;
54589;SDS011;40485;53.172;5.416;2022-10-14T18:11:18;10.32;;;6.55;;
54589;SDS011;40485;53.172;5.416;2022-10-14T18:13:51;11.32;;;7.20;;
54589;SDS011;40485;53.172;5.416;2022-10-14T18:16:24;10.43;;;6.88;;
54589;SDS011;40485;53.172;5.416;2022-10-14T18:18:51;10.50;;;6.63;;
54589;SDS011;40485;53.172;5.416;2022-10-14T18:21:18;10.38;;;6.45;;
54589;SDS011;40485;53.172;5.416;2022-10-14T18:23:45;10.70;;;5.82;;
54589;SDS011;40485;53.172;5.416;2022-10-14T18:26:12;10.40;;;6.95;;
54589;SDS011;40485;53.172;5.416;2022-10-14T18:28:41;11.90;;;6.07;;
54589;SDS011;40485;53.172;5.416;2022-10-14T18:31:18;10.68;;;5.45;;
54589;SDS011;40485;53.172;5.416;2022-10-14T18:33:46;9.80;;;5.03;;
54589;SDS011;40485;53.172;5.416;2022-10-14T18:36:17;8.95;;;4.70;;
54589;SDS011;40485;53.172;5.416;2022-10-14T18:41:16;6.00;;;4.50;;
54589;SDS011;40485;53.172;5.416;2022-10-14T18:43:42;6.63;;;4.30;;
54589;SDS011;40485;53.172;5.416;2022-10-14T18:48:37;6.65;;;3.53;;
54589;SDS011;40485;53.172;5.416;2022-10-14T18:51:03;8.13;;;4.30;;
54589;SDS011;40485;53.172;5.416;2022-10-14T18:53:30;7.57;;;3.63;;
54589;SDS011;40485;53.172;5.416;2022-10-14T18:55:57;11.98;;;4.40;;
54589;SDS011;40485;53.172;5.416;2022-10-14T18:58:35;8.75;;;4.85;;
54589;SDS011;40485;53.172;5.416;2022-10-14T19:01:00;12.68;;;5.63;;
54589;SDS011;40485;53.172;5.416;2022-10-14T19:03:26;7.60;;;3.58;;
54589;SDS011;40485;53.172;5.416;2022-10-14T19:05:55;7.30;;;3.88;;
54589;SDS011;40485;53.172;5.416;2022-10-14T19:08:21;13.55;;;5.20;;
54589;SDS011;40485;53.172;5.416;2022-10-14T19:10:49;12.57;;;5.95;;
54589;SDS011;40485;53.172;5.416;2022-10-14T19:13:15;11.55;;;7.00;;
54589;SDS011;40485;53.172;5.416;2022-10-14T19:15:41;17.70;;;6.50;;
54589;SDS011;40485;53.172;5.416;2022-10-14T19:18:12;9.70;;;5.68;;
54589;SDS011;40485;53.172;5.416;2022-10-14T19:20:38;13.43;;;7.15;;
54589;SDS011;40485;53.172;5.416;2022-10-14T19:23:05;11.35;;;6.40;;
54589;SDS011;40485;53.172;5.416;2022-10-14T19:25:31;13.68;;;7.43;;
54589;SDS011;40485;53.172;5.416;2022-10-14T19:28:00;14.93;;;6.30;;
54589;SDS011;40485;53.172;5.416;2022-10-14T19:30:25;11.63;;;6.20;;
54589;SDS011;40485;53.172;5.416;2022-10-14T19:32:51;15.57;;;5.45;;
54589;SDS011;40485;53.172;5.416;2022-10-14T19:35:16;7.57;;;4.70;;
54589;SDS011;40485;53.172;5.416;2022-10-14T19:37:45;10.88;;;4.82;;
54589;SDS011;40485;53.172;5.416;2022-10-14T19:40:11;7.80;;;5.57;;
54589;SDS011;40485;53.172;5.416;2022-10-14T19:42:36;13.52;;;6.35;;
54589;SDS011;40485;53.172;5.416;2022-10-14T19:45:02;15.23;;;6.88;;
54589;SDS011;40485;53.172;5.416;2022-10-14T19:47:28;11.23;;;5.38;;
54589;SDS011;40485;53.172;5.416;2022-10-14T19:49:54;15.00;;;5.43;;
54589;SDS011;40485;53.172;5.416;2022-10-14T19:52:19;13.40;;;6.85;;
54589;SDS011;40485;53.172;5.416;2022-10-14T19:54:45;10.25;;;5.90;;
54589;SDS011;40485;53.172;5.416;2022-10-14T19:57:10;12.60;;;6.65;;
54589;SDS011;40485;53.172;5.416;2022-10-14T19:59:36;12.65;;;8.20;;
54589;SDS011;40485;53.172;5.416;2022-10-14T20:02:02;15.85;;;7.47;;
54589;SDS011;40485;53.172;5.416;2022-10-14T20:04:27;15.23;;;7.50;;
54589;SDS011;40485;53.172;5.416;2022-10-14T20:06:53;13.32;;;6.70;;
54589;SDS011;40485;53.172;5.416;2022-10-14T20:09:18;12.10;;;7.03;;
54589;SDS011;40485;53.172;5.416;2022-10-14T20:11:44;16.15;;;7.70;;
54589;SDS011;40485;53.172;5.416;2022-10-14T20:14:09;18.52;;;9.50;;
54589;SDS011;40485;53.172;5.416;2022-10-14T20:16:35;14.35;;;7.65;;
54589;SDS011;40485;53.172;5.416;2022-10-14T20:19:01;10.88;;;6.35;;
54589;SDS011;40485;53.172;5.416;2022-10-14T20:21:26;13.98;;;7.55;;
54589;SDS011;40485;53.172;5.416;2022-10-14T20:23:55;14.10;;;6.82;;
54589;SDS011;40485;53.172;5.416;2022-10-14T20:26:22;13.43;;;7.13;;
54589;SDS011;40485;53.172;5.416;2022-10-14T20:28:47;11.05;;;5.25;;
54589;SDS011;40485;53.172;5.416;2022-10-14T20:31:14;12.02;;;5.45;;
54589;SDS011;40485;53.172;5.416;2022-10-14T20:33:42;8.60;;;5.07;;
54589;SDS011;40485;53.172;5.416;2022-10-14T20:38:41;10.07;;;4.07;;
54589;SDS011;40485;53.172;5.416;2022-10-14T20:41:12;13.77;;;5.97;;
54589;SDS011;40485;53.172;5.416;2022-10-14T20:43:43;13.88;;;6.63;;
54589;SDS011;40485;53.172;5.416;2022-10-14T20:46:10;11.82;;;7.45;;
54589;SDS011;40485;53.172;5.416;2022-10-14T20:48:36;12.10;;;7.25;;
54589;SDS011;40485;53.172;5.416;2022-10-14T20:51:05;14.63;;;7.45;;
54589;SDS011;40485;53.172;5.416;2022-10-14T20:53:32;10.95;;;6.30;;
54589;SDS011;40485;53.172;5.416;2022-10-14T20:56:02;11.25;;;5.18;;
54589;SDS011;40485;53.172;5.416;2022-10-14T20:58:29;11.10;;;6.07;;
54589;SDS011;40485;53.172;5.416;2022-10-14T21:01:14;16.13;;;6.65;;
54589;SDS011;40485;53.172;5.416;2022-10-14T21:03:42;15.90;;;7.18;;
54589;SDS011;40485;53.172;5.416;2022-10-14T21:06:10;18.00;;;7.75;;
54589;SDS011;40485;53.172;5.416;2022-10-14T21:08:38;12.30;;;7.28;;
54589;SDS011;40485;53.172;5.416;2022-10-14T21:11:05;14.98;;;7.20;;
54589;SDS011;40485;53.172;5.416;2022-10-14T21:13:33;14.07;;;7.57;;
54589;SDS011;40485;53.172;5.416;2022-10-14T21:15:58;18.48;;;7.93;;
54589;SDS011;40485;53.172;5.416;2022-10-14T21:18:24;18.23;;;8.38;;
54589;SDS011;40485;53.172;5.416;2022-10-14T21:20:50;14.98;;;8.63;;
54589;SDS011;40485;53.172;5.416;2022-10-14T21:23:16;16.48;;;8.20;;
54589;SDS011;40485;53.172;5.416;2022-10-14T21:25:42;14.48;;;8.10;;
54589;SDS011;40485;53.172;5.416;2022-10-14T21:28:08;18.80;;;9.30;;
54589;SDS011;40485;53.172;5.416;2022-10-14T21:30:34;18.05;;;10.38;;
54589;SDS011;40485;53.172;5.416;2022-10-14T21:33:04;19.35;;;11.20;;
54589;SDS011;40485;53.172;5.416;2022-10-14T21:35:30;14.30;;;8.98;;
54589;SDS011;40485;53.172;5.416;2022-10-14T21:37:55;19.60;;;10.98;;
54589;SDS011;40485;53.172;5.416;2022-10-14T21:40:21;19.00;;;9.55;;
54589;SDS011;40485;53.172;5.416;2022-10-14T21:42:46;21.75;;;10.38;;
54589;SDS011;40485;53.172;5.416;2022-10-14T21:45:12;19.98;;;9.80;;
54589;SDS011;40485;53.172;5.416;2022-10-14T21:47:38;18.95;;;10.88;;
54589;SDS011;40485;53.172;5.416;2022-10-14T21:50:03;19.42;;;10.75;;
54589;SDS011;40485;53.172;5.416;2022-10-14T21:52:29;15.98;;;8.93;;
54589;SDS011;40485;53.172;5.416;2022-10-14T21:54:55;18.08;;;10.77;;
54589;SDS011;40485;53.172;5.416;2022-10-14T21:57:20;23.20;;;11.95;;
54589;SDS011;40485;53.172;5.416;2022-10-14T21:59:46;16.83;;;11.52;;
54589;SDS011;40485;53.172;5.416;2022-10-14T22:02:12;26.95;;;12.77;;
54589;SDS011;40485;53.172;5.416;2022-10-14T22:04:37;16.83;;;10.52;;
54589;SDS011;40485;53.172;5.416;2022-10-14T22:07:03;22.75;;;12.45;;
54589;SDS011;40485;53.172;5.416;2022-10-14T22:09:29;22.25;;;10.13;;
54589;SDS011;40485;53.172;5.416;2022-10-14T22:11:55;28.13;;;12.65;;
54589;SDS011;40485;53.172;5.416;2022-10-14T22:14:20;21.20;;;10.35;;
54589;SDS011;40485;53.172;5.416;2022-10-14T22:16:46;18.85;;;10.55;;
54589;SDS011;40485;53.172;5.416;2022-10-14T22:19:12;19.83;;;11.95;;
54589;SDS011;40485;53.172;5.416;2022-10-14T22:21:39;22.60;;;14.27;;
54589;SDS011;40485;53.172;5.416;2022-10-14T22:24:06;25.95;;;13.73;;
54589;SDS011;40485;53.172;5.416;2022-10-14T22:26:32;20.42;;;12.13;;
54589;SDS011;40485;53.172;5.416;2022-10-14T22:29:03;20.85;;;12.50;;
54589;SDS011;40485;53.172;5.416;2022-10-14T22:31:31;19.83;;;10.27;;
54589;SDS011;40485;53.172;5.416;2022-10-14T22:33:58;20.27;;;8.98;;
54589;SDS011;40485;53.172;5.416;2022-10-14T22:36:26;17.67;;;8.95;;
54589;SDS011;40485;53.172;5.416;2022-10-14T22:38:53;15.25;;;8.38;;
54589;SDS011;40485;53.172;5.416;2022-10-14T22:41:20;24.30;;;9.27;;